sensor_id;sensor_type;location;lat;lon;timestamp;temperature;humidity
40622;DHT22;26324;52.040;11.528;2022-12-10T00:01:11;0.00;90.10
40622;DHT22;26324;52.040;11.528;2022-12-10T00:03:37;0.00;90.10
40622;DHT22;26324;52.040;11.528;2022-12-10T00:06:04;0.00;90.00
40622;DHT22;26324;52.040;11.528;2022-12-10T00:08:30;0.00;90.00
40622;DHT22;26324;52.040;11.528;2022-12-10T00:10:56;0.00;89.90
40622;DHT22;26324;52.040;11.528;2022-12-10T00:13:22;0.00;90.10
40622;DHT22;26324;52.040;11.528;2022-12-10T00:15:48;0.00;90.10
40622;DHT22;26324;52.040;11.528;2022-12-10T00:18:14;0.00;90.20
40622;DHT22;26324;52.040;11.528;2022-12-10T00:20:39;0.00;90.20
40622;DHT22;26324;52.040;11.528;2022-12-10T00:23:05;-3276.70;90.40
40622;DHT22;26324;52.040;11.528;2022-12-10T00:25:34;-3276.70;90.40
40622;DHT22;26324;52.040;11.528;2022-12-10T00:27:59;-3276.70;90.30
40622;DHT22;26324;52.040;11.528;2022-12-10T00:30:25;-3276.60;90.50
40622;DHT22;26324;52.040;11.528;2022-12-10T00:32:51;-3276.60;90.60
40622;DHT22;26324;52.040;11.528;2022-12-10T00:35:16;-3276.70;90.80
40622;DHT22;26324;52.040;11.528;2022-12-10T00:37:44;-3276.70;90.60
40622;DHT22;26324;52.040;11.528;2022-12-10T00:40:10;-3276.70;90.50
40622;DHT22;26324;52.040;11.528;2022-12-10T00:42:38;-3276.70;90.50
40622;DHT22;26324;52.040;11.528;2022-12-10T00:45:04;0.00;90.60
40622;DHT22;26324;52.040;11.528;2022-12-10T00:47:30;0.00;90.50
40622;DHT22;26324;52.040;11.528;2022-12-10T00:49:55;-3276.70;90.50
40622;DHT22;26324;52.040;11.528;2022-12-10T00:52:21;0.00;90.70
40622;DHT22;26324;52.040;11.528;2022-12-10T00:54:46;0.00;90.50
40622;DHT22;26324;52.040;11.528;2022-12-10T00:57:12;0.00;90.30
40622;DHT22;26324;52.040;11.528;2022-12-10T00:59:37;0.00;90.30
40622;DHT22;26324;52.040;11.528;2022-12-10T01:02:03;0.00;90.20
40622;DHT22;26324;52.040;11.528;2022-12-10T01:04:28;0.00;90.10
40622;DHT22;26324;52.040;11.528;2022-12-10T01:06:54;0.00;90.10
40622;DHT22;26324;52.040;11.528;2022-12-10T01:09:24;0.00;90.00
40622;DHT22;26324;52.040;11.528;2022-12-10T01:11:51;0.00;90.00
40622;DHT22;26324;52.040;11.528;2022-12-10T01:14:27;0.00;89.90
40622;DHT22;26324;52.040;11.528;2022-12-10T01:16:54;0.00;89.80
40622;DHT22;26324;52.040;11.528;2022-12-10T01:19:20;-3276.70;89.90
40622;DHT22;26324;52.040;11.528;2022-12-10T01:21:52;0.00;89.90
40622;DHT22;26324;52.040;11.528;2022-12-10T01:24:21;0.00;89.80
40622;DHT22;26324;52.040;11.528;2022-12-10T01:26:47;0.00;89.80
40622;DHT22;26324;52.040;11.528;2022-12-10T01:29:13;0.00;89.80
40622;DHT22;26324;52.040;11.528;2022-12-10T01:31:39;0.00;90.00
40622;DHT22;26324;52.040;11.528;2022-12-10T01:34:07;0.00;89.90
40622;DHT22;26324;52.040;11.528;2022-12-10T01:36:37;0.00;89.70
40622;DHT22;26324;52.040;11.528;2022-12-10T01:39:06;0.00;89.90
40622;DHT22;26324;52.040;11.528;2022-12-10T01:41:44;0.00;89.80
40622;DHT22;26324;52.040;11.528;2022-12-10T01:46:37;0.00;89.50
40622;DHT22;26324;52.040;11.528;2022-12-10T01:49:09;0.00;89.20
40622;DHT22;26324;52.040;11.528;2022-12-10T01:51:37;0.00;89.00
40622;DHT22;26324;52.040;11.528;2022-12-10T01:54:06;-3276.70;89.00
40622;DHT22;26324;52.040;11.528;2022-12-10T01:56:36;-3276.70;89.10
40622;DHT22;26324;52.040;11.528;2022-12-10T01:59:03;-3276.70;89.20
40622;DHT22;26324;52.040;11.528;2022-12-10T02:14:53;-3276.70;89.70
40622;DHT22;26324;52.040;11.528;2022-12-10T02:17:24;-3276.70;89.50
40622;DHT22;26324;52.040;11.528;2022-12-10T02:20:15;-3276.70;89.30
40622;DHT22;26324;52.040;11.528;2022-12-10T02:22:46;-3276.60;89.30
40622;DHT22;26324;52.040;11.528;2022-12-10T02:25:15;-3276.70;89.40
40622;DHT22;26324;52.040;11.528;2022-12-10T02:27:51;-3276.70;89.30
40622;DHT22;26324;52.040;11.528;2022-12-10T02:30:18;-3276.70;89.10
40622;DHT22;26324;52.040;11.528;2022-12-10T02:32:44;-3276.70;89.00
40622;DHT22;26324;52.040;11.528;2022-12-10T02:35:26;-3276.50;89.20
40622;DHT22;26324;52.040;11.528;2022-12-10T02:38:05;-3276.50;89.50
40622;DHT22;26324;52.040;11.528;2022-12-10T02:40:33;-3276.50;89.60
40622;DHT22;26324;52.040;11.528;2022-12-10T02:43:01;-3276.50;89.50
40622;DHT22;26324;52.040;11.528;2022-12-10T02:45:28;-3276.60;89.40
40622;DHT22;26324;52.040;11.528;2022-12-10T02:47:57;-3276.60;89.40
40622;DHT22;26324;52.040;11.528;2022-12-10T02:50:24;-3276.60;89.50
40622;DHT22;26324;52.040;11.528;2022-12-10T02:52:50;-3276.60;89.50
40622;DHT22;26324;52.040;11.528;2022-12-10T02:55:17;-3276.60;89.50
40622;DHT22;26324;52.040;11.528;2022-12-10T03:00:50;-3276.60;89.70
40622;DHT22;26324;52.040;11.528;2022-12-10T03:03:29;-3276.70;89.60
40622;DHT22;26324;52.040;11.528;2022-12-10T03:06:15;-3276.60;89.40
40622;DHT22;26324;52.040;11.528;2022-12-10T03:08:51;-3276.70;89.50
40622;DHT22;26324;52.040;11.528;2022-12-10T03:11:24;-3276.70;89.50
40622;DHT22;26324;52.040;11.528;2022-12-10T03:14:03;-3276.70;89.50
40622;DHT22;26324;52.040;11.528;2022-12-10T03:16:36;-3276.70;89.40
40622;DHT22;26324;52.040;11.528;2022-12-10T03:19:06;-3276.70;89.30
40622;DHT22;26324;52.040;11.528;2022-12-10T03:21:34;-3276.70;89.40
40622;DHT22;26324;52.040;11.528;2022-12-10T03:24:02;-3276.70;89.30
40622;DHT22;26324;52.040;11.528;2022-12-10T03:26:28;-3276.70;89.20
40622;DHT22;26324;52.040;11.528;2022-12-10T03:28:58;-3276.70;89.30
40622;DHT22;26324;52.040;11.528;2022-12-10T03:31:26;-3276.70;89.30
40622;DHT22;26324;52.040;11.528;2022-12-10T03:33:52;-3276.70;89.40
40622;DHT22;26324;52.040;11.528;2022-12-10T03:36:19;-3276.70;89.40
40622;DHT22;26324;52.040;11.528;2022-12-10T03:38:45;0.00;89.10
40622;DHT22;26324;52.040;11.528;2022-12-10T03:41:11;-3276.70;89.00
40622;DHT22;26324;52.040;11.528;2022-12-10T03:43:52;0.00;89.20
40622;DHT22;26324;52.040;11.528;2022-12-10T03:46:18;-3276.70;89.10
40622;DHT22;26324;52.040;11.528;2022-12-10T03:48:44;-3276.70;89.20
40622;DHT22;26324;52.040;11.528;2022-12-10T03:51:09;-3276.70;89.40
40622;DHT22;26324;52.040;11.528;2022-12-10T03:53:35;-3276.70;89.40
40622;DHT22;26324;52.040;11.528;2022-12-10T03:56:00;-3276.70;89.40
40622;DHT22;26324;52.040;11.528;2022-12-10T03:58:26;-3276.70;89.20
40622;DHT22;26324;52.040;11.528;2022-12-10T04:00:51;-3276.70;89.20
40622;DHT22;26324;52.040;11.528;2022-12-10T04:03:17;-3276.70;89.40
40622;DHT22;26324;52.040;11.528;2022-12-10T04:05:42;-3276.70;89.40
40622;DHT22;26324;52.040;11.528;2022-12-10T04:08:08;-3276.70;89.20
40622;DHT22;26324;52.040;11.528;2022-12-10T04:10:37;-3276.60;89.30
40622;DHT22;26324;52.040;11.528;2022-12-10T04:13:04;-3276.60;89.40
40622;DHT22;26324;52.040;11.528;2022-12-10T04:15:48;-3276.60;89.50
40622;DHT22;26324;52.040;11.528;2022-12-10T04:18:32;-3276.50;89.50
40622;DHT22;26324;52.040;11.528;2022-12-10T04:20:58;-3276.50;89.50
40622;DHT22;26324;52.040;11.528;2022-12-10T04:23:42;-3276.50;89.60
40622;DHT22;26324;52.040;11.528;2022-12-10T04:26:26;-3276.50;89.60
40622;DHT22;26324;52.040;11.528;2022-12-10T04:29:10;-3276.50;89.70
40622;DHT22;26324;52.040;11.528;2022-12-10T04:31:36;-3276.50;89.70
40622;DHT22;26324;52.040;11.528;2022-12-10T04:34:01;-3276.50;89.70
40622;DHT22;26324;52.040;11.528;2022-12-10T04:36:27;-3276.40;89.70
40622;DHT22;26324;52.040;11.528;2022-12-10T04:38:53;-3276.40;89.90
40622;DHT22;26324;52.040;11.528;2022-12-10T04:41:18;-3276.40;89.90
40622;DHT22;26324;52.040;11.528;2022-12-10T04:43:44;-3276.40;89.90
40622;DHT22;26324;52.040;11.528;2022-12-10T04:46:10;-3276.40;90.00
40622;DHT22;26324;52.040;11.528;2022-12-10T04:48:35;-3276.40;89.90
40622;DHT22;26324;52.040;11.528;2022-12-10T04:51:01;-3276.40;89.80
40622;DHT22;26324;52.040;11.528;2022-12-10T04:53:26;-3276.30;89.90
40622;DHT22;26324;52.040;11.528;2022-12-10T04:55:52;-3276.30;90.10
40622;DHT22;26324;52.040;11.528;2022-12-10T04:58:18;-3276.40;90.00
40622;DHT22;26324;52.040;11.528;2022-12-10T05:00:43;-3276.40;90.00
40622;DHT22;26324;52.040;11.528;2022-12-10T05:03:09;-3276.40;90.00
40622;DHT22;26324;52.040;11.528;2022-12-10T05:05:35;-3276.50;89.90
40622;DHT22;26324;52.040;11.528;2022-12-10T05:08:00;-3276.50;89.70
40622;DHT22;26324;52.040;11.528;2022-12-10T05:10:26;-3276.40;89.80
40622;DHT22;26324;52.040;11.528;2022-12-10T05:12:52;-3276.50;89.80
40622;DHT22;26324;52.040;11.528;2022-12-10T05:15:17;-3276.40;89.80
40622;DHT22;26324;52.040;11.528;2022-12-10T05:17:43;-3276.40;89.80
40622;DHT22;26324;52.040;11.528;2022-12-10T05:20:09;-3276.40;89.90
40622;DHT22;26324;52.040;11.528;2022-12-10T05:22:34;-3276.40;89.90
40622;DHT22;26324;52.040;11.528;2022-12-10T05:25:19;-3276.40;90.00
40622;DHT22;26324;52.040;11.528;2022-12-10T05:27:44;-3276.40;90.20
40622;DHT22;26324;52.040;11.528;2022-12-10T05:30:11;-3276.30;90.30
40622;DHT22;26324;52.040;11.528;2022-12-10T05:32:36;-3276.40;90.30
40622;DHT22;26324;52.040;11.528;2022-12-10T05:35:03;-3276.30;90.30
40622;DHT22;26324;52.040;11.528;2022-12-10T05:37:28;-3276.30;90.20
40622;DHT22;26324;52.040;11.528;2022-12-10T05:39:54;-3276.30;90.20
40622;DHT22;26324;52.040;11.528;2022-12-10T05:42:19;-3276.30;90.20
40622;DHT22;26324;52.040;11.528;2022-12-10T05:44:45;-3276.30;90.40
40622;DHT22;26324;52.040;11.528;2022-12-10T05:47:11;-3276.40;90.30
40622;DHT22;26324;52.040;11.528;2022-12-10T05:49:36;-3276.30;90.30
40622;DHT22;26324;52.040;11.528;2022-12-10T05:52:02;-3276.30;90.30
40622;DHT22;26324;52.040;11.528;2022-12-10T05:54:28;-3276.30;90.40
40622;DHT22;26324;52.040;11.528;2022-12-10T05:56:53;-3276.40;90.30
40622;DHT22;26324;52.040;11.528;2022-12-10T05:59:19;-3276.50;90.10
40622;DHT22;26324;52.040;11.528;2022-12-10T06:01:45;-3276.50;90.00
40622;DHT22;26324;52.040;11.528;2022-12-10T06:04:11;-3276.50;90.00
40622;DHT22;26324;52.040;11.528;2022-12-10T06:06:38;-3276.40;90.00
40622;DHT22;26324;52.040;11.528;2022-12-10T06:09:05;-3276.40;90.10
40622;DHT22;26324;52.040;11.528;2022-12-10T06:11:31;-3276.40;90.20
40622;DHT22;26324;52.040;11.528;2022-12-10T06:13:57;-3276.30;90.20
40622;DHT22;26324;52.040;11.528;2022-12-10T06:16:24;-3276.40;90.40
40622;DHT22;26324;52.040;11.528;2022-12-10T06:18:51;-3276.50;90.30
40622;DHT22;26324;52.040;11.528;2022-12-10T06:21:17;-3276.40;90.30
40622;DHT22;26324;52.040;11.528;2022-12-10T06:23:43;-3276.40;90.40
40622;DHT22;26324;52.040;11.528;2022-12-10T06:26:16;-3276.50;90.40
40622;DHT22;26324;52.040;11.528;2022-12-10T06:28:44;-3276.50;90.50
40622;DHT22;26324;52.040;11.528;2022-12-10T06:31:09;-3276.50;90.50
40622;DHT22;26324;52.040;11.528;2022-12-10T06:33:35;-3276.50;90.50
40622;DHT22;26324;52.040;11.528;2022-12-10T06:36:04;-3276.60;90.40
40622;DHT22;26324;52.040;11.528;2022-12-10T06:38:30;-3276.70;90.30
40622;DHT22;26324;52.040;11.528;2022-12-10T06:40:56;-3276.60;90.10
40622;DHT22;26324;52.040;11.528;2022-12-10T06:43:21;-3276.60;90.20
40622;DHT22;26324;52.040;11.528;2022-12-10T06:45:47;-3276.60;90.10
40622;DHT22;26324;52.040;11.528;2022-12-10T06:48:12;-3276.50;90.30
40622;DHT22;26324;52.040;11.528;2022-12-10T06:50:38;-3276.60;90.30
40622;DHT22;26324;52.040;11.528;2022-12-10T06:53:04;-3276.70;90.30
40622;DHT22;26324;52.040;11.528;2022-12-10T06:55:29;-3276.70;90.30
40622;DHT22;26324;52.040;11.528;2022-12-10T06:57:55;-3276.70;90.20
40622;DHT22;26324;52.040;11.528;2022-12-10T07:00:21;-3276.60;90.20
40622;DHT22;26324;52.040;11.528;2022-12-10T07:02:48;-3276.60;90.30
40622;DHT22;26324;52.040;11.528;2022-12-10T07:05:14;-3276.50;90.20
40622;DHT22;26324;52.040;11.528;2022-12-10T07:07:40;-3276.50;90.50
40622;DHT22;26324;52.040;11.528;2022-12-10T07:10:06;-3276.60;90.50
40622;DHT22;26324;52.040;11.528;2022-12-10T07:12:32;-3276.70;90.30
40622;DHT22;26324;52.040;11.528;2022-12-10T07:14:57;-3276.60;90.40
40622;DHT22;26324;52.040;11.528;2022-12-10T07:17:23;-3276.60;90.60
40622;DHT22;26324;52.040;11.528;2022-12-10T07:19:49;-3276.60;90.70
40622;DHT22;26324;52.040;11.528;2022-12-10T07:22:14;-3276.60;90.90
40622;DHT22;26324;52.040;11.528;2022-12-10T07:24:40;-3276.70;90.80
40622;DHT22;26324;52.040;11.528;2022-12-10T07:27:07;-3276.70;90.50
40622;DHT22;26324;52.040;11.528;2022-12-10T07:29:32;-3276.70;90.60
40622;DHT22;26324;52.040;11.528;2022-12-10T07:31:58;0.00;90.60
40622;DHT22;26324;52.040;11.528;2022-12-10T07:34:24;0.00;90.60
40622;DHT22;26324;52.040;11.528;2022-12-10T07:36:49;0.00;90.40
40622;DHT22;26324;52.040;11.528;2022-12-10T07:39:32;0.00;90.10
40622;DHT22;26324;52.040;11.528;2022-12-10T07:41:58;-3276.70;90.40
40622;DHT22;26324;52.040;11.528;2022-12-10T07:44:25;-3276.60;90.50
40622;DHT22;26324;52.040;11.528;2022-12-10T07:46:52;-3276.60;90.60
40622;DHT22;26324;52.040;11.528;2022-12-10T07:49:19;-3276.70;90.80
40622;DHT22;26324;52.040;11.528;2022-12-10T07:51:50;0.00;90.70
40622;DHT22;26324;52.040;11.528;2022-12-10T07:54:17;0.00;90.50
40622;DHT22;26324;52.040;11.528;2022-12-10T07:56:43;-3276.70;90.40
40622;DHT22;26324;52.040;11.528;2022-12-10T07:59:09;-3276.70;90.60
40622;DHT22;26324;52.040;11.528;2022-12-10T08:01:35;-3276.70;90.50
40622;DHT22;26324;52.040;11.528;2022-12-10T08:04:01;-3276.70;90.50
40622;DHT22;26324;52.040;11.528;2022-12-10T08:06:28;-3276.70;90.60
40622;DHT22;26324;52.040;11.528;2022-12-10T08:08:54;-3276.60;90.60
40622;DHT22;26324;52.040;11.528;2022-12-10T08:11:20;-3276.70;90.70
40622;DHT22;26324;52.040;11.528;2022-12-10T08:13:47;0.00;90.70
40622;DHT22;26324;52.040;11.528;2022-12-10T08:16:18;0.00;90.40
40622;DHT22;26324;52.040;11.528;2022-12-10T08:18:44;0.00;90.00
40622;DHT22;26324;52.040;11.528;2022-12-10T08:21:16;0.00;89.80
40622;DHT22;26324;52.040;11.528;2022-12-10T08:23:42;0.00;90.00
40622;DHT22;26324;52.040;11.528;2022-12-10T08:26:11;0.00;89.90
40622;DHT22;26324;52.040;11.528;2022-12-10T08:28:37;0.00;89.90
40622;DHT22;26324;52.040;11.528;2022-12-10T08:31:04;0.00;90.00
40622;DHT22;26324;52.040;11.528;2022-12-10T08:33:29;0.00;90.00
40622;DHT22;26324;52.040;11.528;2022-12-10T08:36:02;0.10;89.80
40622;DHT22;26324;52.040;11.528;2022-12-10T08:38:28;0.00;89.70
40622;DHT22;26324;52.040;11.528;2022-12-10T08:40:54;0.10;89.40
40622;DHT22;26324;52.040;11.528;2022-12-10T08:43:20;0.00;89.40
40622;DHT22;26324;52.040;11.528;2022-12-10T08:45:45;0.00;89.60
40622;DHT22;26324;52.040;11.528;2022-12-10T08:48:11;0.00;89.60
40622;DHT22;26324;52.040;11.528;2022-12-10T08:50:38;0.10;89.60
40622;DHT22;26324;52.040;11.528;2022-12-10T08:53:03;0.00;89.70
40622;DHT22;26324;52.040;11.528;2022-12-10T08:55:29;0.10;89.20
40622;DHT22;26324;52.040;11.528;2022-12-10T08:57:56;0.10;89.10
40622;DHT22;26324;52.040;11.528;2022-12-10T09:00:22;0.10;89.10
40622;DHT22;26324;52.040;11.528;2022-12-10T09:02:48;0.20;88.70
40622;DHT22;26324;52.040;11.528;2022-12-10T09:05:14;0.20;88.90
40622;DHT22;26324;52.040;11.528;2022-12-10T09:07:39;0.20;88.70
40622;DHT22;26324;52.040;11.528;2022-12-10T09:10:05;0.10;88.90
40622;DHT22;26324;52.040;11.528;2022-12-10T09:12:33;0.10;88.90
40622;DHT22;26324;52.040;11.528;2022-12-10T09:14:59;0.20;89.00
40622;DHT22;26324;52.040;11.528;2022-12-10T09:17:25;0.30;88.80
40622;DHT22;26324;52.040;11.528;2022-12-10T09:19:50;0.30;88.50
40622;DHT22;26324;52.040;11.528;2022-12-10T09:22:16;0.30;88.30
40622;DHT22;26324;52.040;11.528;2022-12-10T09:24:41;0.40;88.20
40622;DHT22;26324;52.040;11.528;2022-12-10T09:27:07;0.40;88.10
40622;DHT22;26324;52.040;11.528;2022-12-10T09:29:33;0.30;87.70
40622;DHT22;26324;52.040;11.528;2022-12-10T09:31:58;0.30;87.50
40622;DHT22;26324;52.040;11.528;2022-12-10T09:34:24;0.30;87.50
40622;DHT22;26324;52.040;11.528;2022-12-10T09:36:49;0.20;87.70
40622;DHT22;26324;52.040;11.528;2022-12-10T09:39:15;0.20;87.70
40622;DHT22;26324;52.040;11.528;2022-12-10T09:41:50;0.10;87.90
40622;DHT22;26324;52.040;11.528;2022-12-10T09:44:34;0.10;88.20
40622;DHT22;26324;52.040;11.528;2022-12-10T09:47:06;0.10;88.40
40622;DHT22;26324;52.040;11.528;2022-12-10T09:52:22;0.10;88.60
40622;DHT22;26324;52.040;11.528;2022-12-10T09:54:57;0.20;88.70
40622;DHT22;26324;52.040;11.528;2022-12-10T09:57:29;0.20;88.40
40622;DHT22;26324;52.040;11.528;2022-12-10T10:00:40;0.20;88.40
40622;DHT22;26324;52.040;11.528;2022-12-10T10:03:05;0.20;88.30
40622;DHT22;26324;52.040;11.528;2022-12-10T10:05:35;0.10;88.30
40622;DHT22;26324;52.040;11.528;2022-12-10T10:08:05;0.00;88.30
40622;DHT22;26324;52.040;11.528;2022-12-10T10:10:35;0.10;88.30
40622;DHT22;26324;52.040;11.528;2022-12-10T10:15:34;0.00;88.40
40622;DHT22;26324;52.040;11.528;2022-12-10T10:18:11;0.00;88.40
40622;DHT22;26324;52.040;11.528;2022-12-10T10:20:38;0.00;88.40
40622;DHT22;26324;52.040;11.528;2022-12-10T10:23:04;0.00;88.40
40622;DHT22;26324;52.040;11.528;2022-12-10T10:25:30;0.00;88.40
40622;DHT22;26324;52.040;11.528;2022-12-10T10:27:56;0.10;88.50
40622;DHT22;26324;52.040;11.528;2022-12-10T10:30:23;0.00;88.40
40622;DHT22;26324;52.040;11.528;2022-12-10T10:32:55;0.00;88.50
40622;DHT22;26324;52.040;11.528;2022-12-10T10:35:25;0.00;88.50
40622;DHT22;26324;52.040;11.528;2022-12-10T10:37:55;0.10;88.50
40622;DHT22;26324;52.040;11.528;2022-12-10T10:40:25;0.10;88.50
40622;DHT22;26324;52.040;11.528;2022-12-10T10:42:54;0.00;88.70
40622;DHT22;26324;52.040;11.528;2022-12-10T10:45:41;0.10;89.00
40622;DHT22;26324;52.040;11.528;2022-12-10T10:50:44;0.00;88.90
40622;DHT22;26324;52.040;11.528;2022-12-10T10:56:27;0.00;89.10
40622;DHT22;26324;52.040;11.528;2022-12-10T10:58:58;0.10;88.90
40622;DHT22;26324;52.040;11.528;2022-12-10T11:01:42;0.00;88.60
40622;DHT22;26324;52.040;11.528;2022-12-10T11:04:08;0.00;88.80
40622;DHT22;26324;52.040;11.528;2022-12-10T11:06:34;0.00;88.70
40622;DHT22;26324;52.040;11.528;2022-12-10T11:09:00;0.00;88.50
40622;DHT22;26324;52.040;11.528;2022-12-10T11:11:36;0.00;88.30
40622;DHT22;26324;52.040;11.528;2022-12-10T11:14:25;0.00;88.00
40622;DHT22;26324;52.040;11.528;2022-12-10T11:22:28;0.00;88.00
40622;DHT22;26324;52.040;11.528;2022-12-10T11:24:55;0.00;87.90
40622;DHT22;26324;52.040;11.528;2022-12-10T11:30:22;0.00;87.50
40622;DHT22;26324;52.040;11.528;2022-12-10T11:33:17;0.00;87.40
40622;DHT22;26324;52.040;11.528;2022-12-10T11:36:02;0.00;87.30
40622;DHT22;26324;52.040;11.528;2022-12-10T11:39:02;0.00;87.50
40622;DHT22;26324;52.040;11.528;2022-12-10T11:41:53;-3276.70;87.80
40622;DHT22;26324;52.040;11.528;2022-12-10T11:44:49;-3276.70;87.50
40622;DHT22;26324;52.040;11.528;2022-12-10T11:47:55;-3276.60;87.60
40622;DHT22;26324;52.040;11.528;2022-12-10T11:50:52;-3276.70;87.40
40622;DHT22;26324;52.040;11.528;2022-12-10T11:53:25;-3276.70;87.20
40622;DHT22;26324;52.040;11.528;2022-12-10T11:56:01;0.00;87.20
40622;DHT22;26324;52.040;11.528;2022-12-10T12:01:27;-3276.70;87.30
40622;DHT22;26324;52.040;11.528;2022-12-10T12:04:03;0.00;87.30
40622;DHT22;26324;52.040;11.528;2022-12-10T12:06:51;0.00;87.00
40622;DHT22;26324;52.040;11.528;2022-12-10T12:09:46;0.00;86.90
40622;DHT22;26324;52.040;11.528;2022-12-10T12:12:38;0.00;87.00
40622;DHT22;26324;52.040;11.528;2022-12-10T12:17:47;-3276.70;86.90
40622;DHT22;26324;52.040;11.528;2022-12-10T12:20:33;0.00;86.80
40622;DHT22;26324;52.040;11.528;2022-12-10T12:23:24;0.00;86.90
40622;DHT22;26324;52.040;11.528;2022-12-10T12:25:55;0.00;86.60
40622;DHT22;26324;52.040;11.528;2022-12-10T12:28:26;0.00;86.50
40622;DHT22;26324;52.040;11.528;2022-12-10T12:31:03;0.10;86.40
40622;DHT22;26324;52.040;11.528;2022-12-10T12:33:43;0.00;86.40
40622;DHT22;26324;52.040;11.528;2022-12-10T12:36:16;0.10;86.40
40622;DHT22;26324;52.040;11.528;2022-12-10T12:38:55;0.10;86.40
40622;DHT22;26324;52.040;11.528;2022-12-10T12:44:21;0.10;86.30
40622;DHT22;26324;52.040;11.528;2022-12-10T12:46:48;0.20;86.20
40622;DHT22;26324;52.040;11.528;2022-12-10T12:49:26;0.20;86.50
40622;DHT22;26324;52.040;11.528;2022-12-10T12:52:00;0.20;86.20
40622;DHT22;26324;52.040;11.528;2022-12-10T12:54:29;0.10;85.90
40622;DHT22;26324;52.040;11.528;2022-12-10T12:57:11;0.10;86.00
40622;DHT22;26324;52.040;11.528;2022-12-10T13:02:57;0.20;85.80
40622;DHT22;26324;52.040;11.528;2022-12-10T13:10:53;0.20;84.80
40622;DHT22;26324;52.040;11.528;2022-12-10T13:15:50;0.30;85.40
40622;DHT22;26324;52.040;11.528;2022-12-10T13:18:34;0.30;85.40
40622;DHT22;26324;52.040;11.528;2022-12-10T13:21:30;0.30;85.70
40622;DHT22;26324;52.040;11.528;2022-12-10T13:24:11;0.40;84.90
40622;DHT22;26324;52.040;11.528;2022-12-10T13:26:40;0.30;84.20
40622;DHT22;26324;52.040;11.528;2022-12-10T13:29:23;0.30;84.50
40622;DHT22;26324;52.040;11.528;2022-12-10T13:32:03;0.30;84.80
40622;DHT22;26324;52.040;11.528;2022-12-10T13:34:34;0.20;84.60
40622;DHT22;26324;52.040;11.528;2022-12-10T13:37:13;0.30;84.40
40622;DHT22;26324;52.040;11.528;2022-12-10T13:40:12;0.10;84.40
40622;DHT22;26324;52.040;11.528;2022-12-10T13:42:44;0.10;84.70
40622;DHT22;26324;52.040;11.528;2022-12-10T13:45:31;0.00;84.60
40622;DHT22;26324;52.040;11.528;2022-12-10T13:51:10;0.00;85.20
40622;DHT22;26324;52.040;11.528;2022-12-10T13:53:54;0.00;85.40
40622;DHT22;26324;52.040;11.528;2022-12-10T13:56:28;0.00;85.20
40622;DHT22;26324;52.040;11.528;2022-12-10T13:59:27;0.00;85.00
40622;DHT22;26324;52.040;11.528;2022-12-10T14:07:30;0.00;84.90
40622;DHT22;26324;52.040;11.528;2022-12-10T14:09:57;0.00;84.70
40622;DHT22;26324;52.040;11.528;2022-12-10T14:12:32;0.00;84.50
40622;DHT22;26324;52.040;11.528;2022-12-10T14:15:07;0.00;84.50
40622;DHT22;26324;52.040;11.528;2022-12-10T14:17:43;0.00;84.60
40622;DHT22;26324;52.040;11.528;2022-12-10T14:20:34;0.00;84.60
40622;DHT22;26324;52.040;11.528;2022-12-10T14:23:21;0.00;84.80
40622;DHT22;26324;52.040;11.528;2022-12-10T14:26:16;0.00;84.90
40622;DHT22;26324;52.040;11.528;2022-12-10T14:28:53;0.00;84.90
40622;DHT22;26324;52.040;11.528;2022-12-10T14:31:25;0.00;85.10
40622;DHT22;26324;52.040;11.528;2022-12-10T14:33:55;0.10;85.10
40622;DHT22;26324;52.040;11.528;2022-12-10T14:36:27;0.00;85.10
40622;DHT22;26324;52.040;11.528;2022-12-10T14:38:53;0.00;85.20
40622;DHT22;26324;52.040;11.528;2022-12-10T14:41:22;-3276.70;85.20
40622;DHT22;26324;52.040;11.528;2022-12-10T14:43:48;-3276.70;85.00
40622;DHT22;26324;52.040;11.528;2022-12-10T14:46:23;-3276.70;84.60
40622;DHT22;26324;52.040;11.528;2022-12-10T14:48:51;-3276.60;85.10
40622;DHT22;26324;52.040;11.528;2022-12-10T14:51:21;-3276.60;85.10
40622;DHT22;26324;52.040;11.528;2022-12-10T14:53:49;-3276.60;85.10
40622;DHT22;26324;52.040;11.528;2022-12-10T14:56:28;-3276.50;85.30
40622;DHT22;26324;52.040;11.528;2022-12-10T15:01:33;-3276.50;85.10
40622;DHT22;26324;52.040;11.528;2022-12-10T15:04:02;-3276.50;84.90
40622;DHT22;26324;52.040;11.528;2022-12-10T15:06:35;-3276.50;85.00
40622;DHT22;26324;52.040;11.528;2022-12-10T15:09:03;-3276.40;85.40
40622;DHT22;26324;52.040;11.528;2022-12-10T15:11:30;-3276.50;85.10
40622;DHT22;26324;52.040;11.528;2022-12-10T15:14:00;-3276.50;84.90
40622;DHT22;26324;52.040;11.528;2022-12-10T15:18:55;-3276.50;84.60
40622;DHT22;26324;52.040;11.528;2022-12-10T15:21:24;-3276.50;84.70
40622;DHT22;26324;52.040;11.528;2022-12-10T15:23:52;-3276.50;84.70
40622;DHT22;26324;52.040;11.528;2022-12-10T15:26:33;-3276.50;84.80
40622;DHT22;26324;52.040;11.528;2022-12-10T15:32:17;-3276.40;85.10
40622;DHT22;26324;52.040;11.528;2022-12-10T15:34:47;-3276.30;85.10
40622;DHT22;26324;52.040;11.528;2022-12-10T15:37:18;-3276.30;85.00
40622;DHT22;26324;52.040;11.528;2022-12-10T15:39:50;-3276.40;85.10
40622;DHT22;26324;52.040;11.528;2022-12-10T15:42:39;-3276.40;84.80
40622;DHT22;26324;52.040;11.528;2022-12-10T15:45:38;-3276.30;84.80
40622;DHT22;26324;52.040;11.528;2022-12-10T15:48:10;-3276.30;84.40
40622;DHT22;26324;52.040;11.528;2022-12-10T15:50:37;-3276.30;84.00
40622;DHT22;26324;52.040;11.528;2022-12-10T15:53:03;-3276.40;83.90
40622;DHT22;26324;52.040;11.528;2022-12-10T15:55:29;-3276.40;83.80
40622;DHT22;26324;52.040;11.528;2022-12-10T15:57:55;-3276.40;83.90
40622;DHT22;26324;52.040;11.528;2022-12-10T16:00:24;-3276.30;84.00
40622;DHT22;26324;52.040;11.528;2022-12-10T16:05:29;-3276.40;83.50
40622;DHT22;26324;52.040;11.528;2022-12-10T16:07:58;-3276.40;83.20
40622;DHT22;26324;52.040;11.528;2022-12-10T16:10:26;-3276.40;83.40
40622;DHT22;26324;52.040;11.528;2022-12-10T16:13:01;-3276.40;83.60
40622;DHT22;26324;52.040;11.528;2022-12-10T16:15:30;-3276.30;83.80
40622;DHT22;26324;52.040;11.528;2022-12-10T16:18:01;-3276.30;83.80
40622;DHT22;26324;52.040;11.528;2022-12-10T16:20:30;-3276.30;83.80
40622;DHT22;26324;52.040;11.528;2022-12-10T16:22:57;-3276.20;83.90
40622;DHT22;26324;52.040;11.528;2022-12-10T16:25:25;-3276.30;84.10
40622;DHT22;26324;52.040;11.528;2022-12-10T16:27:51;-3276.20;84.20
40622;DHT22;26324;52.040;11.528;2022-12-10T16:30:45;-3276.30;84.40
40622;DHT22;26324;52.040;11.528;2022-12-10T16:33:12;-3276.40;84.10
40622;DHT22;26324;52.040;11.528;2022-12-10T16:35:38;-3276.40;83.50
40622;DHT22;26324;52.040;11.528;2022-12-10T16:38:03;-3276.40;83.00